CYYZ/YYZ METAR and TAF weather

Enter ICAO airport designator
Station Type Date Time Source
CYYZ METAR 2017/09/24 13:00 UTC NOAA

CYYZ 241300Z 00000KT 15SM SKC 25/19 A3016 RMK SLP213 DENSITY ALT 1600FT


Station Type Date Time Source
CYYZ Decoded METAR 2017/09/24 13:00 UTC NOAA

Toronto Pearson Int'L. Ont., Canada (CYYZ) 43-40N 079-38W 173M
Sep 24, 2017 - 09:00 AM EDT / 2017.09.24 1300 UTC
Wind: Calm:0
Visibility: 15 mile(s):0
Sky conditions: clear
Temperature: 77 F (25 C)
Dew Point: 66 F (19 C)
Relative Humidity: 69%
Pressure (altimeter): 30.16 in. Hg (1021 hPa)
ob: CYYZ 241300Z 00000KT 15SM SKC 25/19 A3016 RMK SLP213 DENSITY ALT 1600FT
cycle: 13

Station Type Date Time Source
CYYZ TAF 2017/09/24 12:39 UTC NOAA

TAF CYYZ 241138Z 2412/2518 32005KT P6SM SKC
FM241500 26008KT P6SM FEW050
BECMG 2502/2504 33005KT
BECMG 2510/2512 VRB03KT
FM251500 17008KT P6SM SCT240
RMK NXT FCST BY 241500Z


Example: see airport list